Terminal Aerodrome Forecast
Issued by NWS

Home | Current Version | Previous Version | Text Only | Print | Product List | Glossary Off
Versions: 1 2 3 4 5 6 7 8 9 10 11 12 13 14

000
FTUS45 KGGW 250520
TAFSDY
TAF
KSDY 250520Z 2506/2606 05011KT P6SM OVC011
     FM251700 03009KT P6SM BKN027
     FM251800 04009KT P6SM BKN035
     FM260300 06005KT P6SM BKN070=

USA.gov is the U.S. government's official web portal to all federal, state and local government web resources and services.